Time;durP1;ratioP1;P1;durP2;ratioP2;P2;SDS_P1;SDS_P2;PMS_P1;PMS_P2;Temp;Humidity;BMP_temperature;BMP_pressure;BME280_temperature;BME280_humidity;BME280_pressure;Samples;Min_cycle;Max_cycle;Signal;HPM_P1;HPM_P2
2023/05/21 00:02:10;;;;;;;;;26.60;22.00;;;;;18.96;76.24;99244.97;6085172;28;96374;-62
2023/05/21 00:05:15;;;;;;;;;25.75;23.25;;;;;18.98;77.44;99253.72;6102569;28;96541;-62
2023/05/21 00:08:19;;;;;;;;;27.25;23.75;;;;;19.07;76.98;99255.94;6092748;28;96262;-62
2023/05/21 00:11:22;;;;;;;;;26.00;24.00;;;;;19.00;77.24;99254.28;6104370;28;96437;-63
2023/05/21 00:14:27;;;;;;;;;27.00;24.00;;;;;18.98;77.84;99258.38;6094631;28;96340;-63
2023/05/21 00:17:31;;;;;;;;;24.75;22.25;;;;;18.92;78.47;99252.06;6096167;28;96341;-62
2023/05/21 00:20:35;;;;;;;;;26.60;23.40;;;;;18.82;78.32;99243.00;6112429;28;96371;-62
2023/05/21 00:23:41;;;;;;;;;26.75;23.75;;;;;18.95;77.74;99250.72;6076026;28;96980;-63
2023/05/21 00:26:44;;;;;;;;;29.50;26.00;;;;;19.00;78.03;99251.56;6100152;28;96330;-62
2023/05/21 00:29:49;;;;;;;;;28.00;26.00;;;;;18.96;78.08;99244.97;6079198;28;97078;-62
2023/05/21 00:32:52;;;;;;;;;27.60;24.60;;;;;18.90;79.17;99253.41;6063654;28;96883;-62
2023/05/21 00:35:56;;;;;;;;;28.40;26.40;;;;;18.89;78.52;99243.56;6075070;28;96561;-63
2023/05/21 00:39:01;;;;;;;;;28.00;26.00;;;;;18.97;78.77;99248.50;6079597;28;97763;-62
2023/05/21 00:42:05;;;;;;;;;27.00;26.00;;;;;19.02;78.51;99246.63;6082866;28;96301;-62
2023/05/21 00:45:10;;;;;;;;;24.60;23.40;;;;;18.67;78.81;99194.56;6079232;28;96818;-62
2023/05/21 00:48:14;;;;;;;;;26.00;24.00;;;;;19.00;79.08;99256.19;6075153;28;98101;-62
2023/05/21 00:51:20;;;;;;;;;26.00;24.60;;;;;18.92;79.37;99226.63;6090680;28;96527;-63
2023/05/21 00:54:24;;;;;;;;;25.00;23.60;;;;;18.98;79.39;99240.06;6086585;28;96473;-62
2023/05/21 00:57:27;;;;;;;;;24.50;23.00;;;;;18.85;79.23;99223.34;6104407;28;96298;-62
2023/05/21 01:00:34;;;;;;;;;25.00;24.00;;;;;18.92;80.35;99246.59;6102198;28;96273;-63
2023/05/21 01:03:38;;;;;;;;;26.00;24.00;;;;;18.97;79.96;99234.84;6094575;28;96525;-62
2023/05/21 01:06:42;;;;;;;;;29.50;27.25;;;;;18.87;79.63;99223.88;6058389;28;96371;-62
2023/05/21 01:09:46;;;;;;;;;23.00;21.00;;;;;18.98;80.07;99240.06;6074628;28;96981;-62
2023/05/21 01:12:50;;;;;;;;;28.80;26.80;;;;;19.01;79.74;99235.97;6090651;28;97401;-62
2023/05/21 01:15:56;;;;;;;;;24.50;22.75;;;;;19.01;79.54;99235.97;6075883;28;96666;-63
2023/05/21 01:19:02;;;;;;;;;26.00;25.00;;;;;19.03;80.07;99231.88;6077586;28;96626;-62
2023/05/21 01:22:07;;;;;;;;;27.60;25.60;;;;;18.97;80.69;99230.22;6077961;28;96339;-62
2023/05/21 01:25:13;;;;;;;;;27.60;25.00;;;;;18.96;81.50;99214.13;6085173;28;96514;-62
2023/05/21 01:28:17;;;;;;;;;30.40;26.40;;;;;18.99;81.65;99224.50;6071825;28;97164;-63
2023/05/21 01:31:27;;;;;;;;;29.40;26.60;;;;;18.90;81.28;99212.44;6051515;28;96777;-62
2023/05/21 01:34:34;;;;;;;;;28.60;27.60;;;;;18.88;82.65;99220.06;6048839;28;96913;-62
2023/05/21 01:37:44;;;;;;;;;29.40;27.00;;;;;18.76;83.32;99220.31;6050451;28;96943;-62
2023/05/21 01:40:53;;;;;;;;;28.40;25.00;;;;;18.76;83.89;99222.22;6062316;28;96729;-62
2023/05/21 01:43:57;;;;;;;;;27.40;26.00;;;;;18.81;83.94;99223.06;6069119;28;96929;-62
2023/05/21 01:47:03;;;;;;;;;26.33;23.00;;;;;18.82;83.91;99219.22;6060923;28;96419;-62
2023/05/21 01:50:09;;;;;;;;;29.00;27.00;;;;;18.82;84.44;99221.13;6075293;28;96262;-62
2023/05/21 01:53:13;;;;;;;;;30.00;27.33;;;;;18.76;84.37;99220.31;6074094;28;98487;-62
2023/05/21 01:56:17;;;;;;;;;29.40;27.60;;;;;18.60;84.43;99207.66;6079172;28;96313;-62
2023/05/21 01:59:22;;;;;;;;;26.60;25.60;;;;;18.72;84.72;99218.34;6066010;28;97009;-63
2023/05/21 02:02:25;;;;;;;;;31.50;29.75;;;;;18.74;84.51;99217.03;6060678;28;96233;-62
2023/05/21 02:05:29;;;;;;;;;29.00;27.00;;;;;18.71;85.81;99212.09;6075139;28;96530;-62
2023/05/21 02:08:33;;;;;;;;;29.50;27.00;;;;;18.63;85.89;99214.50;6074642;28;97503;-62
2023/05/21 02:11:38;;;;;;;;;29.00;24.50;;;;;18.62;85.81;99208.22;6090414;28;96462;-62
2023/05/21 02:14:41;;;;;;;;;30.50;26.00;;;;;18.59;86.72;99217.78;6071483;28;96505;-62
2023/05/21 02:17:45;;;;;;;;;29.00;27.00;;;;;18.60;87.32;99207.66;6091728;28;97627;-63
2023/05/21 02:20:48;;;;;;;;;30.00;27.00;;;;;18.59;87.12;99203.28;6092028;28;96535;-62
2023/05/21 02:23:52;;;;;;;;;30.00;27.00;;;;;18.52;86.64;99175.41;6103499;28;96604;-62
2023/05/21 02:26:57;;;;;;;;;25.00;23.00;;;;;18.56;87.16;99201.09;6072255;28;96293;-62
2023/05/21 02:30:00;;;;;;;;;27.80;26.00;;;;;18.53;87.00;99194.25;6064304;28;96515;-62
2023/05/21 02:33:04;;;;;;;;;32.00;30.00;;;;;18.54;87.66;99197.81;6059721;28;96258;-62
2023/05/21 02:36:11;;;;;;;;;30.50;28.50;;;;;18.50;87.52;99200.22;6092292;28;96887;-62
2023/05/21 02:39:16;;;;;;;;;30.50;28.25;;;;;18.39;88.67;99208.63;6093510;28;96392;-62
2023/05/21 02:42:21;;;;;;;;;29.00;26.00;;;;;18.44;87.35;99203.19;6071524;28;96342;-62
2023/05/21 02:45:25;;;;;;;;;26.60;25.40;;;;;18.29;88.35;99203.09;6097020;28;96514;-63
2023/05/21 02:48:28;;;;;;;;;29.00;28.40;;;;;18.35;88.29;99211.06;6089893;28;96968;-62
2023/05/21 02:51:32;;;;;;;;;29.60;27.20;;;;;18.33;88.11;99196.00;6088545;28;96663;-62
2023/05/21 02:54:35;;;;;;;;;28.80;27.00;;;;;18.30;88.56;99202.00;6074042;28;96267;-62
2023/05/21 02:57:40;;;;;;;;;32.50;29.00;;;;;18.33;88.44;99213.22;6065789;28;96383;-62
2023/05/21 03:00:43;;;;;;;;;27.00;26.50;;;;;18.38;87.68;99210.50;6059218;28;98887;-62
2023/05/21 03:03:47;;;;;;;;;33.50;30.00;;;;;18.31;88.37;99206.38;6060717;28;100348;-62
2023/05/21 03:06:54;;;;;;;;;30.00;29.00;;;;;18.39;87.35;99200.44;6057882;28;97171;-62
2023/05/21 03:09:57;;;;;;;;;32.00;29.80;;;;;18.43;87.71;99207.81;6067105;28;96308;-62
2023/05/21 03:13:03;;;;;;;;;30.00;28.80;;;;;18.43;86.97;99207.81;6078468;28;96356;-62
2023/05/21 03:16:09;;;;;;;;;26.75;25.75;;;;;18.41;87.61;99201.00;6077014;28;97094;-62
2023/05/21 03:19:13;;;;;;;;;31.60;28.00;;;;;18.40;87.20;99200.16;6057748;28;96289;-62
2023/05/21 03:22:16;;;;;;;;;32.00;28.50;;;;;18.44;86.57;99206.75;6081239;28;96238;-62
2023/05/21 03:25:23;;;;;;;;;28.33;27.33;;;;;18.48;86.97;99202.38;6081299;28;97902;-62
2023/05/21 03:28:29;;;;;;;;;31.25;29.00;;;;;18.52;86.18;99208.16;6055982;28;96502;-63
2023/05/21 03:31:33;;;;;;;;;28.00;26.00;;;;;18.55;86.77;99211.19;6070884;28;96764;-62
2023/05/21 03:34:43;;;;;;;;;26.20;24.80;;;;;18.51;86.83;99201.88;6064908;28;97024;-62
2023/05/21 03:37:46;;;;;;;;;29.00;27.00;;;;;18.37;87.80;99197.16;6053234;28;96522;-62
2023/05/21 03:40:49;;;;;;;;;26.60;24.40;;;;;18.35;87.76;99200.13;6065460;28;96439;-62
2023/05/21 03:43:54;;;;;;;;;30.00;28.75;;;;;18.35;87.63;99189.22;6060744;28;96889;-62
2023/05/21 03:47:02;;;;;;;;;25.20;24.80;;;;;18.45;87.81;99208.38;6082152;28;96663;-62
2023/05/21 03:50:10;;;;;;;;;24.80;23.80;;;;;18.49;87.23;99212.22;6073940;28;96256;-62
2023/05/21 03:53:13;;;;;;;;;27.80;25.00;;;;;18.50;87.75;99202.13;6055265;28;96537;-62
2023/05/21 03:56:17;;;;;;;;;31.75;29.00;;;;;18.61;86.98;99203.84;6069858;28;96257;-62
2023/05/21 03:59:22;;;;;;;;;26.67;26.33;;;;;18.60;86.82;99196.75;6066139;28;96371;-62
2023/05/21 04:02:27;;;;;;;;;28.60;25.60;;;;;18.62;86.32;99200.00;6052918;28;96786;-63
2023/05/21 04:05:30;;;;;;;;;29.00;27.00;;;;;18.75;86.16;99201.47;6071512;28;97218;-62
2023/05/21 04:08:35;;;;;;;;;30.00;25.00;;;;;18.89;85.47;99206.16;6066193;28;96679;-62
2023/05/21 04:11:38;;;;;;;;;29.60;26.40;;;;;18.93;84.31;99199.06;6069946;28;97485;-62
2023/05/21 04:14:43;;;;;;;;;28.00;26.00;;;;;19.01;84.24;99200.44;6061742;28;96846;-62
2023/05/21 04:17:47;;;;;;;;;29.00;26.00;;;;;19.07;83.46;99210.28;6082370;28;97090;-63
2023/05/21 04:20:50;;;;;;;;;26.60;24.40;;;;;19.15;82.64;99208.97;6074662;28;96557;-62
2023/05/21 04:23:56;;;;;;;;;27.20;24.80;;;;;19.28;82.65;99208.44;6080164;28;96309;-62
2023/05/21 04:27:18;;;;;;;;;28.00;27.00;;;;;19.40;80.96;99207.09;6046308;28;97520;-63
2023/05/21 04:30:22;;;;;;;;;28.50;26.50;;;;;19.40;80.75;99207.09;6077802;28;96749;-62
2023/05/21 04:33:27;;;;;;;;;27.00;24.00;;;;;19.41;80.32;99206.00;6045474;28;96895;-62
2023/05/21 04:36:32;;;;;;;;;25.50;23.00;;;;;19.50;79.85;99200.03;6044550;28;96674;-63
2023/05/21 04:39:36;;;;;;;;;26.33;25.33;;;;;19.41;79.64;99200.53;6066892;28;96523;-62
2023/05/21 04:42:40;;;;;;;;;28.00;25.00;;;;;19.39;78.33;99202.72;6067129;28;97308;-62
2023/05/21 04:45:46;;;;;;;;;26.20;23.60;;;;;19.53;78.17;99203.03;6061254;28;96372;-62
2023/05/21 04:48:51;;;;;;;;;23.00;22.60;;;;;19.58;76.81;99202.22;6061470;28;96279;-62
2023/05/21 04:51:55;;;;;;;;;26.00;23.00;;;;;19.70;76.36;99202.75;6068423;28;96605;-62
2023/05/21 04:54:58;;;;;;;;;23.00;21.20;;;;;19.68;75.65;99204.97;6067094;28;96647;-62
2023/05/21 04:58:02;;;;;;;;;21.00;19.00;;;;;19.68;74.90;99200.31;6064301;28;97018;-63
2023/05/21 05:01:07;;;;;;;;;22.00;19.00;;;;;19.75;74.30;99197.28;6065056;28;97136;-62
2023/05/21 05:04:11;;;;;;;;;21.60;19.00;;;;;19.85;73.37;99198.13;6058983;28;96926;-63
2023/05/21 05:07:15;;;;;;;;;22.00;20.75;;;;;19.81;72.45;99199.75;6073219;28;98006;-62
2023/05/21 05:10:19;;;;;;;;;22.60;21.00;;;;;19.83;73.13;99188.56;6064787;28;96576;-63
2023/05/21 05:13:22;;;;;;;;;21.00;20.00;;;;;19.83;72.30;99194.84;6065669;28;96876;-63
2023/05/21 05:16:28;;;;;;;;;18.60;17.80;;;;;19.89;70.70;99191.00;6079853;28;97573;-62
2023/05/21 05:19:33;;;;;;;;;19.25;17.25;;;;;19.92;69.88;99197.84;6049295;28;96653;-62
2023/05/21 05:22:37;;;;;;;;;19.00;17.00;;;;;20.16;70.02;99195.34;6051138;28;96855;-62
2023/05/21 05:25:40;;;;;;;;;21.00;18.00;;;;;20.33;69.13;99193.13;6066906;28;96232;-63
2023/05/21 05:28:44;;;;;;;;;17.00;17.00;;;;;20.59;68.20;99202.09;6071278;28;97303;-64
2023/05/21 05:31:49;;;;;;;;;18.40;17.00;;;;;20.65;65.23;99201.81;6081096;28;96393;-62
2023/05/21 05:34:52;;;;;;;;;17.40;16.00;;;;;20.72;65.44;99205.06;6098144;28;96317;-63
2023/05/21 05:37:56;;;;;;;;;17.40;16.40;;;;;20.80;64.78;99189.97;6046909;28;96889;-62
2023/05/21 05:41:00;;;;;;;;;15.00;14.00;;;;;20.84;64.46;99179.25;6085910;28;97559;-62
2023/05/21 05:44:04;;;;;;;;;18.20;16.40;;;;;20.77;63.13;99183.13;6062347;28;99845;-62
2023/05/21 05:47:12;;;;;;;;;17.75;16.75;;;;;20.87;64.01;99193.22;6061253;28;97982;-62
2023/05/21 05:50:16;;;;;;;;;19.60;16.80;;;;;21.01;63.64;99185.22;6077341;28;96651;-63
2023/05/21 05:53:19;;;;;;;;;15.60;15.00;;;;;21.20;62.59;99183.50;6064215;28;97058;-63
2023/05/21 05:56:23;;;;;;;;;15.00;14.00;;;;;21.31;61.83;99184.22;6040282;28;96834;-63
2023/05/21 05:59:26;;;;;;;;;17.00;15.00;;;;;21.40;61.46;99186.13;6079411;28;96943;-62
2023/05/21 06:02:35;;;;;;;;;15.40;15.00;;;;;21.34;60.45;99183.69;6068408;28;96350;-62
2023/05/21 06:05:39;;;;;;;;;17.00;15.00;;;;;21.33;59.90;99177.38;6050789;28;97285;-63
2023/05/21 06:08:42;;;;;;;;;15.00;15.00;;;;;21.46;61.31;99175.91;6035092;28;96821;-62
2023/05/21 06:11:47;;;;;;;;;16.50;15.50;;;;;21.56;60.01;99171.16;6055658;28;96557;-63
2023/05/21 06:14:50;;;;;;;;;15.40;14.60;;;;;21.53;59.70;99177.22;6051822;28;97271;-62
2023/05/21 06:17:56;;;;;;;;;14.00;13.00;;;;;21.73;60.41;99168.00;6066957;28;96314;-62
2023/05/21 06:21:00;;;;;;;;;16.75;15.25;;;;;21.92;59.38;99165.38;6059009;28;96641;-63
2023/05/21 06:24:04;;;;;;;;;18.00;16.50;;;;;22.11;59.12;99169.06;6056299;28;96817;-62
2023/05/21 06:27:07;;;;;;;;;15.80;15.80;;;;;22.37;58.76;99167.69;6059103;28;96670;-62
2023/05/21 06:30:11;;;;;;;;;19.40;17.80;;;;;22.62;58.42;99160.25;6055789;28;97660;-62
2023/05/21 06:33:16;;;;;;;;;20.00;19.50;;;;;22.75;56.83;99159.56;6034404;28;97370;-62
2023/05/21 06:36:20;;;;;;;;;17.00;16.00;;;;;22.62;54.70;99172.06;6057026;28;96344;-63
2023/05/21 06:39:25;;;;;;;;;16.50;15.50;;;;;22.65;55.02;99167.91;6038693;28;96668;-63
2023/05/21 06:42:30;;;;;;;;;14.80;13.40;;;;;22.70;56.27;99171.44;6051508;28;96606;-62
2023/05/21 06:46:06;;;;;;;;;18.00;18.00;;;;;22.84;55.90;99168.78;6030066;28;96231;-63
2023/05/21 06:49:16;;;;;;;;;16.00;16.00;;;;;22.95;54.23;99166.72;6062884;28;96600;-62
2023/05/21 06:52:19;;;;;;;;;16.00;14.75;;;;;23.27;54.99;99162.09;6052709;28;96330;-62
2023/05/21 06:55:23;;;;;;;;;16.00;15.00;;;;;23.27;53.67;99144.78;6060095;28;96425;-63
2023/05/21 06:59:02;;;;;;;;;12.75;11.75;;;;;23.14;52.98;99154.63;6062372;28;96723;-62
2023/05/21 07:02:06;;;;;;;;;17.00;15.75;;;;;23.37;53.71;99158.38;6052787;28;97016;-63
2023/05/21 07:05:11;;;;;;;;;15.00;14.00;;;;;23.60;52.89;99156.69;6049103;28;97448;-62
2023/05/21 07:08:15;;;;;;;;;14.60;13.40;;;;;23.77;51.36;99151.44;6086898;28;97824;-63
2023/05/21 07:11:18;;;;;;;;;13.00;12.80;;;;;23.96;51.20;99154.94;6056913;28;98518;-62
2023/05/21 07:14:23;;;;;;;;;19.40;18.00;;;;;23.99;50.79;99151.63;6059743;28;96984;-63
2023/05/21 07:17:27;;;;;;;;;14.00;14.00;;;;;23.99;50.51;99148.84;6077254;28;96680;-63
2023/05/21 07:20:32;;;;;;;;;15.40;14.00;;;;;24.08;49.80;99151.72;6045430;28;99150;-63
2023/05/21 07:23:39;;;;;;;;;13.00;13.00;;;;;24.22;50.08;99151.75;6062010;28;96844;-63
2023/05/21 07:26:43;;;;;;;;;14.60;13.60;;;;;24.45;50.98;99145.25;6059201;28;96658;-63
2023/05/21 07:29:47;;;;;;;;;14.40;12.40;;;;;24.68;50.84;99143.41;6064781;28;96885;-63
2023/05/21 07:32:51;;;;;;;;;14.00;13.80;;;;;24.98;48.88;99148.28;6085901;28;96642;-63
2023/05/21 07:35:56;;;;;;;;;13.00;13.00;;;;;25.15;47.82;99142.94;6063127;28;97574;-63
2023/05/21 07:38:59;;;;;;;;;15.00;14.00;;;;;25.20;47.66;99142.81;6097271;28;96759;-63
2023/05/21 07:42:04;;;;;;;;;14.00;13.00;;;;;25.28;47.93;99142.06;6069286;28;96438;-63
2023/05/21 07:45:08;;;;;;;;;16.33;14.33;;;;;25.55;47.88;99140.38;6074531;28;96783;-63
2023/05/21 07:48:16;;;;;;;;;15.75;15.00;;;;;25.87;47.26;99137.31;6061618;28;96741;-63
2023/05/21 07:51:30;;;;;;;;;14.75;13.00;;;;;26.13;46.90;99141.06;6084641;28;96235;-62
2023/05/21 07:54:33;;;;;;;;;15.60;15.00;;;;;26.43;46.01;99144.94;6085585;28;96536;-63
2023/05/21 07:57:37;;;;;;;;;14.00;13.80;;;;;26.36;44.01;99146.53;6075349;28;98279;-60
2023/05/21 08:00:46;;;;;;;;;12.75;12.75;;;;;26.31;43.56;99139.19;6077787;28;96595;-62
2023/05/21 08:03:50;;;;;;;;;14.25;14.00;;;;;26.40;45.34;99133.69;6051964;28;98578;-62
2023/05/21 08:06:55;;;;;;;;;14.60;13.40;;;;;26.63;44.54;99133.28;6061726;28;98410;-62
2023/05/21 08:09:59;;;;;;;;;13.00;13.00;;;;;26.97;44.85;99145.63;6068876;28;96740;-62
2023/05/21 08:13:05;;;;;;;;;14.00;13.00;;;;;27.20;44.38;99136.03;6081474;28;97741;-62
2023/05/21 08:16:08;;;;;;;;;11.00;11.00;;;;;27.40;43.00;99132.59;6063507;28;98056;-62
2023/05/21 08:19:12;;;;;;;;;11.40;11.00;;;;;27.62;41.91;99122.50;6081389;28;96646;-62
2023/05/21 08:22:17;;;;;;;;;13.00;12.40;;;;;27.74;41.89;99134.56;6069184;28;96647;-62
2023/05/21 08:25:21;;;;;;;;;15.00;13.40;;;;;27.99;41.50;99136.47;6086954;28;97720;-62
2023/05/21 08:28:26;;;;;;;;;11.00;10.50;;;;;28.17;40.63;99131.69;6073819;28;96340;-63
2023/05/21 08:31:30;;;;;;;;;14.00;12.50;;;;;28.46;41.29;99135.66;6082891;28;96981;-62
2023/05/21 08:34:33;;;;;;;;;16.80;15.00;;;;;28.71;40.07;99127.22;6092271;28;97312;-62
2023/05/21 08:38:15;;;;;;;;;9.33;9.00;;;;;28.65;39.22;99134.06;6005979;28;96555;-62
2023/05/21 08:41:57;;;;;;;;;11.60;11.00;;;;;28.67;39.10;99140.13;6072319;28;96434;-62
2023/05/21 08:45:02;;;;;;;;;10.20;9.20;;;;;28.71;39.11;99130.00;6057581;28;97140;-63
2023/05/21 08:48:08;;;;;;;;;9.50;9.00;;;;;28.63;39.74;99130.84;6076735;28;96460;-62
2023/05/21 08:51:12;;;;;;;;;9.33;8.33;;;;;28.70;39.26;99131.13;6062560;28;96492;-62
2023/05/21 08:54:23;;;;;;;;;13.00;12.00;;;;;28.88;39.70;99134.66;6081865;28;96244;-63
2023/05/21 08:57:28;;;;;;;;;12.00;11.40;;;;;29.19;40.23;99123.94;6071536;28;96707;-62
2023/05/21 09:00:32;;;;;;;;;11.00;10.00;;;;;29.09;38.34;99131.88;6064723;28;96972;-62
2023/05/21 09:03:40;;;;;;;;;11.00;10.00;;;;;29.17;38.48;99133.78;6068652;28;96361;-62
2023/05/21 09:06:45;;;;;;;;;12.00;11.00;;;;;29.18;38.22;99124.28;6073863;28;96703;-62
2023/05/21 09:09:56;;;;;;;;;12.00;11.80;;;;;29.13;37.37;99125.28;6067085;28;96631;-62
2023/05/21 09:13:00;;;;;;;;;11.00;10.00;;;;;29.34;38.26;99124.53;6065873;28;96935;-62
2023/05/21 09:16:05;;;;;;;;;9.00;9.00;;;;;29.61;38.57;99121.19;6046260;28;98493;-63
2023/05/21 09:19:08;;;;;;;;;10.00;10.00;;;;;29.17;36.97;99112.38;6088473;28;96700;-62
2023/05/21 09:22:13;;;;;;;;;10.00;9.50;;;;;29.34;37.70;99122.56;6061615;28;97626;-63
2023/05/21 09:25:21;;;;;;;;;9.00;9.00;;;;;29.57;38.42;99126.59;6080097;28;97055;-62
2023/05/21 09:28:25;;;;;;;;;10.00;9.25;;;;;29.63;36.58;99104.97;6061194;28;96751;-63
2023/05/21 09:31:29;;;;;;;;;11.50;9.50;;;;;29.77;37.34;99115.78;6073540;28;96652;-62
2023/05/21 09:34:35;;;;;;;;;12.00;10.00;;;;;29.90;37.07;99111.91;6073289;28;96368;-63
2023/05/21 09:37:42;;;;;;;;;9.00;8.60;;;;;29.65;34.55;99117.38;6050881;28;97999;-63
2023/05/21 09:40:47;;;;;;;;;10.50;8.75;;;;;29.76;37.82;99112.22;6079728;28;96991;-61
2023/05/21 09:43:52;;;;;;;;;8.00;7.00;;;;;29.86;36.76;99078.38;6052742;28;96938;-62
2023/05/21 09:46:57;;;;;;;;;8.50;8.50;;;;;30.30;35.42;99103.75;6080986;28;97230;-61
2023/05/21 09:50:01;;;;;;;;;7.50;7.25;;;;;30.41;35.54;99093.78;6074855;28;97020;-61
2023/05/21 09:53:12;;;;;;;;;8.60;8.00;;;;;30.47;34.21;99109.13;6088096;28;96671;-61
2023/05/21 09:56:18;;;;;;;;;8.00;8.00;;;;;30.63;33.27;99089.75;6073275;28;98434;-61
2023/05/21 09:59:22;;;;;;;;;7.60;7.40;;;;;30.88;34.85;99094.13;6071640;28;97237;-61
2023/05/21 10:02:26;;;;;;;;;6.80;6.20;;;;;31.17;34.10;99093.03;6078425;28;97501;-62
2023/05/21 10:05:31;;;;;;;;;8.00;8.00;;;;;31.20;32.94;99095.09;6071851;28;96235;-62
2023/05/21 10:08:36;;;;;;;;;10.00;9.00;;;;;31.33;33.57;99091.91;6111542;28;96254;-62
2023/05/21 10:11:44;;;;;;;;;9.40;9.00;;;;;31.55;32.74;99090.56;6089119;28;96334;-63
2023/05/21 10:14:54;;;;;;;;;10.00;10.00;;;;;31.50;32.26;99092.78;6104659;28;96416;-63
2023/05/21 10:17:59;;;;;;;;;10.00;9.00;;;;;31.02;32.77;99094.59;6092253;28;96259;-63
2023/05/21 10:21:05;;;;;;;;;9.40;9.00;;;;;30.95;34.29;99078.44;6113493;28;96889;-63
2023/05/21 10:24:10;;;;;;;;;8.00;8.00;;;;;30.96;33.51;99077.28;6093562;28;98409;-62
2023/05/21 10:27:14;;;;;;;;;7.80;7.00;;;;;31.35;33.78;99074.84;6089506;28;96357;-62
2023/05/21 10:30:18;;;;;;;;;6.60;6.60;;;;;31.48;32.11;99078.38;6108433;28;96330;-62
2023/05/21 10:33:23;;;;;;;;;7.80;7.80;;;;;31.27;33.47;99079.44;6096388;28;96614;-63
2023/05/21 10:36:30;;;;;;;;;8.50;7.75;;;;;31.07;32.05;99077.63;6114021;28;96633;-62
2023/05/21 10:39:34;;;;;;;;;10.33;9.33;;;;;31.23;33.14;99066.53;6058836;28;96660;-62
2023/05/21 10:43:02;;;;;;;;;10.75;10.75;;;;;31.17;32.20;99051.25;6106761;28;96714;-62
2023/05/21 10:46:47;;;;;;;;;7.00;7.00;;;;;31.73;32.40;99069.59;6109943;28;96537;-63
2023/05/21 10:50:01;;;;;;;;;9.75;9.75;;;;;31.98;31.00;99063.84;6078312;28;98922;-62
2023/05/21 10:53:14;;;;;;;;;8.40;8.00;;;;;31.77;30.48;99075.25;6106359;28;97675;-63
2023/05/21 10:56:23;;;;;;;;;7.60;7.60;;;;;31.86;31.40;99059.19;6107161;28;96406;-63
2023/05/21 10:59:40;;;;;;;;;11.00;10.00;;;;;31.63;31.61;99056.16;6113054;28;96477;-63
2023/05/21 11:02:44;;;;;;;;;8.00;7.00;;;;;31.75;31.75;99061.69;6095573;28;96787;-63
2023/05/21 11:05:54;;;;;;;;;7.80;6.80;;;;;32.12;32.10;99061.47;6081852;28;96652;-63
2023/05/21 11:09:01;;;;;;;;;10.40;9.00;;;;;32.16;30.56;99054.78;6078634;28;96702;-62
2023/05/21 11:12:06;;;;;;;;;8.00;8.00;;;;;32.27;31.21;99046.69;6083541;28;96426;-63
2023/05/21 11:15:16;;;;;;;;;6.50;6.00;;;;;32.49;31.38;99050.81;6088690;28;96138;-64
2023/05/21 11:18:19;;;;;;;;;7.80;7.80;;;;;32.40;30.11;99056.56;6086250;28;96351;-63
2023/05/21 11:21:27;;;;;;;;;8.80;8.00;;;;;32.38;30.38;99047.75;6080500;28;96270;-63
2023/05/21 11:24:33;;;;;;;;;8.00;8.00;;;;;32.31;30.47;99047.59;6080572;28;96432;-63
2023/05/21 11:27:38;;;;;;;;;8.20;8.00;;;;;32.03;30.05;99039.28;6066223;28;96614;-63
2023/05/21 11:30:43;;;;;;;;;7.60;7.60;;;;;32.27;30.05;99052.28;6079395;28;96496;-64
2023/05/21 11:33:47;;;;;;;;;6.00;5.40;;;;;32.27;28.65;99051.47;6085830;28;96312;-62
2023/05/21 11:37:26;;;;;;;;;9.60;9.00;;;;;32.10;28.50;99049.84;6087131;28;96398;-63
2023/05/21 11:40:29;;;;;;;;;8.00;8.00;;;;;31.87;28.91;99054.38;6087281;28;96319;-62
2023/05/21 11:43:33;;;;;;;;;9.00;8.40;;;;;31.55;28.21;99051.53;6064937;28;96837;-63
2023/05/21 11:46:37;;;;;;;;;10.80;9.80;;;;;31.75;29.20;99044.97;6079371;28;96304;-63
2023/05/21 11:49:42;;;;;;;;;7.00;7.00;;;;;32.05;28.10;99050.09;6087260;28;96451;-62
2023/05/21 11:52:47;;;;;;;;;6.75;6.00;;;;;32.00;28.28;99036.44;6089944;28;96540;-63
2023/05/21 11:55:56;;;;;;;;;7.00;6.75;;;;;32.01;28.05;99035.25;6083782;28;98379;-63
2023/05/21 11:59:02;;;;;;;;;7.50;6.50;;;;;32.22;28.35;99042.19;6085907;28;98684;-63
2023/05/21 12:02:06;;;;;;;;;8.00;8.00;;;;;32.36;28.10;99015.78;6084795;28;96258;-63
2023/05/21 12:05:09;;;;;;;;;6.00;6.00;;;;;32.63;27.92;99034.38;6084753;28;96410;-63
2023/05/21 12:08:24;;;;;;;;;8.00;8.00;;;;;32.56;26.62;99029.44;6105530;28;96272;-63
2023/05/21 12:11:27;;;;;;;;;7.20;7.00;;;;;32.36;26.30;99024.97;6111236;28;96328;-63
2023/05/21 12:14:31;;;;;;;;;7.00;7.00;;;;;32.04;28.22;99023.38;6111006;28;96386;-63
2023/05/21 12:17:35;;;;;;;;;8.00;7.00;;;;;31.81;27.24;99026.00;6103661;28;96509;-63
2023/05/21 12:20:38;;;;;;;;;8.00;8.00;;;;;31.68;27.74;99018.84;6102270;28;96763;-63
2023/05/21 12:23:43;;;;;;;;;6.20;6.20;;;;;31.57;27.59;99023.38;6109026;28;96372;-64
2023/05/21 12:26:47;;;;;;;;;7.00;6.00;;;;;31.49;27.66;99027.06;6110084;28;96312;-63
2023/05/21 12:29:51;;;;;;;;;8.00;8.00;;;;;31.32;27.22;99020.69;6087706;28;96144;-63
2023/05/21 12:32:58;;;;;;;;;9.00;8.00;;;;;30.76;27.70;99028.16;6102694;28;96310;-63
2023/05/21 12:36:02;;;;;;;;;8.00;8.00;;;;;30.64;27.84;99019.84;6106769;28;96296;-63
2023/05/21 12:39:08;;;;;;;;;6.25;6.25;;;;;30.94;28.74;99020.31;6110857;28;96362;-64
2023/05/21 12:42:14;;;;;;;;;7.00;6.00;;;;;31.07;27.93;99018.34;6108827;28;96489;-63
2023/05/21 12:45:19;;;;;;;;;8.00;6.00;;;;;31.35;27.71;99017.16;6096563;28;97066;-63
2023/05/21 12:48:23;;;;;;;;;8.00;7.00;;;;;31.39;28.35;99020.03;6109610;28;97196;-62
2023/05/21 12:51:26;;;;;;;;;9.00;8.00;;;;;31.48;27.72;99015.13;6102218;28;96345;-63
2023/05/21 12:54:33;;;;;;;;;9.40;8.40;;;;;31.28;27.12;99010.56;6102012;28;96401;-63
2023/05/21 12:57:38;;;;;;;;;8.00;6.75;;;;;31.25;27.67;99009.31;6088240;28;96346;-63
2023/05/21 13:00:42;;;;;;;;;6.00;5.75;;;;;30.90;27.56;99009.06;6102330;28;96290;-63
2023/05/21 13:03:46;;;;;;;;;7.50;7.00;;;;;30.85;26.88;99000.16;6089502;28;96757;-63
2023/05/21 13:06:49;;;;;;;;;7.00;7.00;;;;;31.14;28.20;99011.00;6085164;28;96480;-63
2023/05/21 13:09:54;;;;;;;;;6.80;5.80;;;;;31.32;27.30;99001.19;6080706;28;96402;-63
2023/05/21 13:12:58;;;;;;;;;7.00;7.00;;;;;31.44;27.21;99002.25;6078789;28;96467;-63
2023/05/21 13:16:01;;;;;;;;;6.00;6.00;;;;;31.04;26.78;99000.34;6081281;28;96749;-63
2023/05/21 13:19:04;;;;;;;;;8.00;7.00;;;;;30.61;26.48;99000.22;6085951;28;96897;-63
2023/05/21 13:22:09;;;;;;;;;7.00;6.00;;;;;30.47;26.96;98995.84;6083130;28;96393;-63
2023/05/21 13:25:15;;;;;;;;;6.00;6.00;;;;;30.25;28.05;99001.09;6078195;28;96594;-63
2023/05/21 13:28:18;;;;;;;;;11.40;10.40;;;;;30.13;27.16;98999.91;6079298;28;97050;-63
2023/05/21 13:31:22;;;;;;;;;7.00;7.00;;;;;30.26;27.94;98986.00;6082667;28;96820;-64
2023/05/21 13:34:25;;;;;;;;;7.00;7.00;;;;;30.45;27.44;98987.00;6083062;28;97472;-62
2023/05/21 13:37:28;;;;;;;;;7.00;6.00;;;;;30.49;26.59;98987.16;6076188;28;96369;-63
2023/05/21 13:40:33;;;;;;;;;9.00;8.00;;;;;30.40;26.71;98986.44;6077754;28;97159;-63
2023/05/21 13:43:42;;;;;;;;;8.00;8.00;;;;;30.26;26.56;98986.00;6086656;28;96853;-63
2023/05/21 13:46:45;;;;;;;;;8.00;8.00;;;;;29.96;26.26;98977.91;6088850;28;96240;-63
2023/05/21 13:49:48;;;;;;;;;7.00;7.00;;;;;30.25;27.51;98970.50;6084312;28;96145;-63
2023/05/21 13:52:52;;;;;;;;;8.00;7.40;;;;;30.47;27.16;98983.91;6081285;28;96319;-63
2023/05/21 13:55:56;;;;;;;;;6.00;6.00;;;;;30.47;26.94;98970.81;6083790;28;98391;-63
2023/05/21 13:59:00;;;;;;;;;7.75;6.75;;;;;30.59;26.68;98974.75;6072415;28;96700;-63
2023/05/21 14:02:03;;;;;;;;;6.00;6.00;;;;;30.51;26.35;98968.13;6085779;28;96509;-63
2023/05/21 14:05:07;;;;;;;;;8.00;6.60;;;;;30.57;26.47;98968.72;6085914;28;96569;-63
2023/05/21 14:08:11;;;;;;;;;7.80;6.80;;;;;30.46;25.97;98965.59;6107836;28;96345;-64
2023/05/21 14:11:16;;;;;;;;;7.00;7.00;;;;;30.26;26.54;98972.09;6113508;28;96880;-63
2023/05/21 14:14:20;;;;;;;;;8.00;8.00;;;;;30.03;26.04;98964.25;6112527;28;96535;-63
2023/05/21 14:17:23;;;;;;;;;7.00;7.00;;;;;29.98;27.52;98969.22;6105559;28;96262;-64
2023/05/21 14:20:27;;;;;;;;;7.00;7.00;;;;;29.94;27.50;98969.13;6106412;28;96977;-63